sensor_id;sensor_type;location;lat;lon;timestamp;pressure;altitude;pressure_sealevel;temperature;humidity
70103;BME280;57470;50.034;15.256;2023-03-21T00:01:16;99511.06;;;9.59;99.43
70103;BME280;57470;50.034;15.256;2023-03-21T00:03:42;99502.03;;;9.62;99.28
70103;BME280;57470;50.034;15.256;2023-03-21T00:06:09;99509.16;;;9.61;99.63
70103;BME280;57470;50.034;15.256;2023-03-21T00:08:36;99504.88;;;9.59;99.88
70103;BME280;57470;50.034;15.256;2023-03-21T00:11:04;99509.75;;;9.52;99.58
70103;BME280;57470;50.034;15.256;2023-03-21T00:13:31;99504.44;;;9.52;99.06
70103;BME280;57470;50.034;15.256;2023-03-21T00:16:02;99493.44;;;9.44;100.00
70103;BME280;57470;50.034;15.256;2023-03-21T00:18:28;99492.16;;;9.37;100.00
70103;BME280;57470;50.034;15.256;2023-03-21T00:20:58;99485.22;;;9.34;100.00
70103;BME280;57470;50.034;15.256;2023-03-21T00:23:28;99477.16;;;9.22;100.00
70103;BME280;57470;50.034;15.256;2023-03-21T00:25:55;99478.22;;;9.19;99.33
70103;BME280;57470;50.034;15.256;2023-03-21T00:28:21;99480.97;;;9.18;99.42
70103;BME280;57470;50.034;15.256;2023-03-21T00:30:47;99476.91;;;9.12;99.44
70103;BME280;57470;50.034;15.256;2023-03-21T00:33:12;99466.97;;;9.01;98.81
70103;BME280;57470;50.034;15.256;2023-03-21T00:35:39;99470.28;;;8.91;100.00
70103;BME280;57470;50.034;15.256;2023-03-21T00:38:09;99468.75;;;8.87;99.43
70103;BME280;57470;50.034;15.256;2023-03-21T00:40:35;99468.66;;;8.88;99.19
70103;BME280;57470;50.034;15.256;2023-03-21T00:43:01;99465.25;;;8.86;99.24
70103;BME280;57470;50.034;15.256;2023-03-21T00:45:26;99453.31;;;8.79;98.90
70103;BME280;57470;50.034;15.256;2023-03-21T00:47:52;99452.16;;;8.69;100.00
70103;BME280;57470;50.034;15.256;2023-03-21T00:50:17;99463.44;;;8.73;99.74
70103;BME280;57470;50.034;15.256;2023-03-21T00:52:43;99459.94;;;8.72;98.93
70103;BME280;57470;50.034;15.256;2023-03-21T00:55:14;99458.41;;;8.68;99.25
70103;BME280;57470;50.034;15.256;2023-03-21T00:57:39;99459.44;;;8.51;99.25
70103;BME280;57470;50.034;15.256;2023-03-21T01:00:07;99457.63;;;8.52;99.40
70103;BME280;57470;50.034;15.256;2023-03-21T01:02:34;99448.66;;;8.54;99.77
70103;BME280;57470;50.034;15.256;2023-03-21T01:05:02;99442.63;;;8.22;99.35
70103;BME280;57470;50.034;15.256;2023-03-21T01:07:28;99449.31;;;8.44;99.86
70103;BME280;57470;50.034;15.256;2023-03-21T01:09:53;99449.50;;;8.41;99.22
70103;BME280;57470;50.034;15.256;2023-03-21T01:12:19;99452.41;;;8.36;98.30
70103;BME280;57470;50.034;15.256;2023-03-21T01:14:45;99453.34;;;8.35;98.47
70103;BME280;57470;50.034;15.256;2023-03-21T01:17:10;99450.97;;;8.31;98.15
70103;BME280;57470;50.034;15.256;2023-03-21T01:19:36;99452.25;;;8.23;98.14
70103;BME280;57470;50.034;15.256;2023-03-21T01:22:01;99451.84;;;8.15;97.95
70103;BME280;57470;50.034;15.256;2023-03-21T01:24:26;99453.31;;;8.21;97.99
70103;BME280;57470;50.034;15.256;2023-03-21T01:26:52;99450.78;;;7.74;100.00
70103;BME280;57470;50.034;15.256;2023-03-21T01:29:17;99447.75;;;7.96;99.57
70103;BME280;57470;50.034;15.256;2023-03-21T01:31:43;99446.59;;;8.00;99.02
70103;BME280;57470;50.034;15.256;2023-03-21T01:34:08;99444.25;;;7.95;98.58
70103;BME280;57470;50.034;15.256;2023-03-21T01:36:34;99445.34;;;7.91;98.93
70103;BME280;57470;50.034;15.256;2023-03-21T01:38:59;99444.94;;;7.83;99.25
70103;BME280;57470;50.034;15.256;2023-03-21T01:41:31;99451.94;;;7.84;99.16
70103;BME280;57470;50.034;15.256;2023-03-21T01:43:58;99444.00;;;7.84;99.05
70103;BME280;57470;50.034;15.256;2023-03-21T01:49:24;99448.44;;;7.83;98.64
70103;BME280;57470;50.034;15.256;2023-03-21T01:51:55;99446.56;;;7.85;98.07
70103;BME280;57470;50.034;15.256;2023-03-21T01:54:27;99443.28;;;7.66;98.96
70103;BME280;57470;50.034;15.256;2023-03-21T01:56:57;99447.38;;;7.56;99.30
70103;BME280;57470;50.034;15.256;2023-03-21T01:59:28;99447.22;;;7.59;99.45
70103;BME280;57470;50.034;15.256;2023-03-21T02:01:58;99443.78;;;7.57;99.76
70103;BME280;57470;50.034;15.256;2023-03-21T02:04:25;99445.59;;;7.57;99.54
70103;BME280;57470;50.034;15.256;2023-03-21T02:09:31;99444.13;;;7.35;98.51
70103;BME280;57470;50.034;15.256;2023-03-21T02:11:58;99439.19;;;7.29;98.00
70103;BME280;57470;50.034;15.256;2023-03-21T02:14:24;99439.88;;;7.33;98.63
70103;BME280;57470;50.034;15.256;2023-03-21T02:17:14;99440.13;;;7.28;98.27
70103;BME280;57470;50.034;15.256;2023-03-21T02:28:08;99429.13;;;7.20;100.00
70103;BME280;57470;50.034;15.256;2023-03-21T02:30:48;99433.47;;;7.21;100.00
70103;BME280;57470;50.034;15.256;2023-03-21T02:38:38;99443.63;;;7.44;100.00
70103;BME280;57470;50.034;15.256;2023-03-21T02:41:27;99433.97;;;7.28;100.00
70103;BME280;57470;50.034;15.256;2023-03-21T02:44:09;99431.94;;;7.48;100.00
70103;BME280;57470;50.034;15.256;2023-03-21T02:49:29;99422.97;;;7.51;100.00
70103;BME280;57470;50.034;15.256;2023-03-21T02:51:57;99431.69;;;7.83;100.00
70103;BME280;57470;50.034;15.256;2023-03-21T02:54:24;99440.13;;;7.89;100.00
70103;BME280;57470;50.034;15.256;2023-03-21T02:56:52;99437.16;;;7.96;100.00
70103;BME280;57470;50.034;15.256;2023-03-21T02:59:22;99434.19;;;7.86;100.00
70103;BME280;57470;50.034;15.256;2023-03-21T03:01:51;99432.72;;;7.96;100.00
70103;BME280;57470;50.034;15.256;2023-03-21T03:04:23;99433.44;;;8.14;100.00
70103;BME280;57470;50.034;15.256;2023-03-21T03:07:09;99432.13;;;8.05;100.00
70103;BME280;57470;50.034;15.256;2023-03-21T03:18:23;99428.19;;;7.82;100.00
70103;BME280;57470;50.034;15.256;2023-03-21T03:21:21;99427.84;;;7.88;100.00
70103;BME280;57470;50.034;15.256;2023-03-21T03:23:56;99426.00;;;7.75;100.00
70103;BME280;57470;50.034;15.256;2023-03-21T03:29:16;99421.41;;;7.63;100.00
70103;BME280;57470;50.034;15.256;2023-03-21T03:32:01;99428.47;;;7.62;100.00
70103;BME280;57470;50.034;15.256;2023-03-21T03:34:32;99428.25;;;7.67;100.00
70103;BME280;57470;50.034;15.256;2023-03-21T03:37:06;99428.91;;;7.70;100.00
70103;BME280;57470;50.034;15.256;2023-03-21T03:39:48;99428.56;;;7.61;100.00
70103;BME280;57470;50.034;15.256;2023-03-21T03:42:20;99424.50;;;7.55;100.00
70103;BME280;57470;50.034;15.256;2023-03-21T03:44:50;99425.25;;;7.57;100.00
70103;BME280;57470;50.034;15.256;2023-03-21T03:50:19;99431.50;;;7.40;100.00
70103;BME280;57470;50.034;15.256;2023-03-21T03:52:55;99431.66;;;7.53;100.00
70103;BME280;57470;50.034;15.256;2023-03-21T03:55:23;99424.34;;;7.42;100.00
70103;BME280;57470;50.034;15.256;2023-03-21T03:57:52;99430.91;;;7.51;100.00
70103;BME280;57470;50.034;15.256;2023-03-21T04:00:18;99435.00;;;7.41;100.00
70103;BME280;57470;50.034;15.256;2023-03-21T04:02:44;99437.97;;;7.35;100.00
70103;BME280;57470;50.034;15.256;2023-03-21T04:05:10;99438.25;;;7.30;98.69
70103;BME280;57470;50.034;15.256;2023-03-21T04:07:36;99432.34;;;7.25;99.25
70103;BME280;57470;50.034;15.256;2023-03-21T04:10:02;99433.63;;;7.18;98.98
70103;BME280;57470;50.034;15.256;2023-03-21T04:12:29;99440.78;;;7.16;99.38
70103;BME280;57470;50.034;15.256;2023-03-21T04:14:55;99443.13;;;7.06;98.46
70103;BME280;57470;50.034;15.256;2023-03-21T04:17:20;99445.00;;;7.04;98.79
70103;BME280;57470;50.034;15.256;2023-03-21T04:19:46;99446.84;;;7.02;99.39
70103;BME280;57470;50.034;15.256;2023-03-21T04:22:11;99445.72;;;6.91;98.09
70103;BME280;57470;50.034;15.256;2023-03-21T04:24:40;99441.13;;;6.94;98.70
70103;BME280;57470;50.034;15.256;2023-03-21T04:27:06;99449.28;;;6.90;99.01
70103;BME280;57470;50.034;15.256;2023-03-21T04:29:32;99449.34;;;6.72;99.28
70103;BME280;57470;50.034;15.256;2023-03-21T04:31:57;99448.41;;;6.73;99.82
70103;BME280;57470;50.034;15.256;2023-03-21T04:34:24;99451.06;;;6.73;99.83
70103;BME280;57470;50.034;15.256;2023-03-21T04:36:53;99452.69;;;6.43;100.00
70103;BME280;57470;50.034;15.256;2023-03-21T04:39:19;99449.75;;;6.65;100.00
70103;BME280;57470;50.034;15.256;2023-03-21T04:41:45;99451.34;;;6.52;100.00
70103;BME280;57470;50.034;15.256;2023-03-21T04:44:12;99446.25;;;6.64;100.00
70103;BME280;57470;50.034;15.256;2023-03-21T04:46:38;99445.13;;;6.53;100.00
70103;BME280;57470;50.034;15.256;2023-03-21T04:49:04;99450.75;;;6.62;99.33
70103;BME280;57470;50.034;15.256;2023-03-21T04:51:31;99453.06;;;6.53;99.84
70103;BME280;57470;50.034;15.256;2023-03-21T04:53:57;99445.69;;;6.42;100.00
70103;BME280;57470;50.034;15.256;2023-03-21T04:56:27;99453.28;;;6.48;99.26
70103;BME280;57470;50.034;15.256;2023-03-21T04:58:57;99454.41;;;6.44;99.33
70103;BME280;57470;50.034;15.256;2023-03-21T05:01:23;99449.34;;;6.39;99.66
70103;BME280;57470;50.034;15.256;2023-03-21T05:03:50;99439.50;;;6.26;100.00
70103;BME280;57470;50.034;15.256;2023-03-21T05:06:16;99440.81;;;6.34;99.88
70103;BME280;57470;50.034;15.256;2023-03-21T05:08:41;99444.47;;;6.32;99.95
70103;BME280;57470;50.034;15.256;2023-03-21T05:11:06;99448.03;;;6.31;100.00
70103;BME280;57470;50.034;15.256;2023-03-21T05:13:32;99443.06;;;6.42;100.00
70103;BME280;57470;50.034;15.256;2023-03-21T05:15:57;99449.19;;;6.43;100.00
70103;BME280;57470;50.034;15.256;2023-03-21T05:18:22;99450.78;;;6.45;100.00
70103;BME280;57470;50.034;15.256;2023-03-21T05:20:52;99450.72;;;6.47;100.00
70103;BME280;57470;50.034;15.256;2023-03-21T05:23:21;99445.13;;;6.53;100.00
70103;BME280;57470;50.034;15.256;2023-03-21T05:25:47;99449.84;;;6.63;100.00
70103;BME280;57470;50.034;15.256;2023-03-21T05:28:12;99439.88;;;6.68;100.00
70103;BME280;57470;50.034;15.256;2023-03-21T05:30:38;99444.03;;;6.57;100.00
70103;BME280;57470;50.034;15.256;2023-03-21T05:33:03;99451.69;;;6.78;100.00
70103;BME280;57470;50.034;15.256;2023-03-21T05:35:29;99457.69;;;6.98;100.00
70103;BME280;57470;50.034;15.256;2023-03-21T05:37:55;99445.22;;;7.00;100.00
70103;BME280;57470;50.034;15.256;2023-03-21T05:40:20;99451.38;;;7.00;100.00
70103;BME280;57470;50.034;15.256;2023-03-21T05:42:46;99454.22;;;7.13;100.00
70103;BME280;57470;50.034;15.256;2023-03-21T05:45:12;99447.03;;;7.31;100.00
70103;BME280;57470;50.034;15.256;2023-03-21T05:47:38;99449.25;;;7.38;100.00
70103;BME280;57470;50.034;15.256;2023-03-21T05:50:04;99450.47;;;7.48;100.00
70103;BME280;57470;50.034;15.256;2023-03-21T05:52:30;99456.34;;;7.53;100.00
70103;BME280;57470;50.034;15.256;2023-03-21T05:54:55;99454.38;;;7.57;100.00
70103;BME280;57470;50.034;15.256;2023-03-21T05:57:20;99448.91;;;7.60;100.00
70103;BME280;57470;50.034;15.256;2023-03-21T05:59:46;99453.09;;;7.64;100.00
70103;BME280;57470;50.034;15.256;2023-03-21T06:02:12;99454.09;;;7.77;100.00
70103;BME280;57470;50.034;15.256;2023-03-21T06:04:37;99451.78;;;7.87;100.00
70103;BME280;57470;50.034;15.256;2023-03-21T06:07:02;99456.38;;;7.83;100.00
70103;BME280;57470;50.034;15.256;2023-03-21T06:09:28;99450.88;;;8.02;100.00
70103;BME280;57470;50.034;15.256;2023-03-21T06:11:55;99452.44;;;7.90;100.00
70103;BME280;57470;50.034;15.256;2023-03-21T06:14:21;99457.06;;;8.17;100.00
70103;BME280;57470;50.034;15.256;2023-03-21T06:16:46;99457.00;;;8.91;100.00
70103;BME280;57470;50.034;15.256;2023-03-21T06:19:12;99458.75;;;10.40;94.85
70103;BME280;57470;50.034;15.256;2023-03-21T06:21:38;99454.59;;;11.25;90.47
70103;BME280;57470;50.034;15.256;2023-03-21T06:24:03;99459.97;;;11.73;86.01
70103;BME280;57470;50.034;15.256;2023-03-21T06:26:29;99457.69;;;12.27;84.48
70103;BME280;57470;50.034;15.256;2023-03-21T06:28:54;99463.78;;;12.29;83.77
70103;BME280;57470;50.034;15.256;2023-03-21T06:31:20;99463.16;;;12.71;83.18
70103;BME280;57470;50.034;15.256;2023-03-21T06:33:47;99465.44;;;12.19;84.35
70103;BME280;57470;50.034;15.256;2023-03-21T06:36:13;99464.63;;;11.58;85.64
70103;BME280;57470;50.034;15.256;2023-03-21T06:38:39;99467.66;;;11.28;86.97
70103;BME280;57470;50.034;15.256;2023-03-21T06:41:06;99464.28;;;11.13;87.89
70103;BME280;57470;50.034;15.256;2023-03-21T06:43:32;99467.59;;;11.04;88.66
70103;BME280;57470;50.034;15.256;2023-03-21T06:45:59;99469.41;;;11.04;88.70
70103;BME280;57470;50.034;15.256;2023-03-21T06:48:25;99464.22;;;10.89;89.83
70103;BME280;57470;50.034;15.256;2023-03-21T06:50:51;99469.81;;;11.10;89.24
70103;BME280;57470;50.034;15.256;2023-03-21T06:53:18;99474.94;;;11.13;89.42
70103;BME280;57470;50.034;15.256;2023-03-21T06:55:49;99478.69;;;10.98;89.97
70103;BME280;57470;50.034;15.256;2023-03-21T06:58:14;99484.44;;;11.05;90.38
70103;BME280;57470;50.034;15.256;2023-03-21T07:00:40;99494.13;;;10.80;90.85
70103;BME280;57470;50.034;15.256;2023-03-21T07:03:05;99486.88;;;10.70;90.41
70103;BME280;57470;50.034;15.256;2023-03-21T07:05:31;99493.25;;;10.67;90.46
70103;BME280;57470;50.034;15.256;2023-03-21T07:07:56;99488.59;;;10.71;90.57
70103;BME280;57470;50.034;15.256;2023-03-21T07:10:21;99488.34;;;10.74;90.32
70103;BME280;57470;50.034;15.256;2023-03-21T07:12:47;99484.09;;;10.84;90.15
70103;BME280;57470;50.034;15.256;2023-03-21T07:15:12;99490.59;;;10.55;91.02
70103;BME280;57470;50.034;15.256;2023-03-21T07:17:38;99488.50;;;10.72;91.04
70103;BME280;57470;50.034;15.256;2023-03-21T07:20:03;99489.19;;;10.74;90.46
70103;BME280;57470;50.034;15.256;2023-03-21T07:22:32;99482.38;;;11.21;91.09
70103;BME280;57470;50.034;15.256;2023-03-21T07:24:58;99487.13;;;11.41;89.79
70103;BME280;57470;50.034;15.256;2023-03-21T07:27:23;99488.94;;;11.41;89.28
70103;BME280;57470;50.034;15.256;2023-03-21T07:29:48;99483.22;;;11.34;89.00
70103;BME280;57470;50.034;15.256;2023-03-21T07:32:14;99489.09;;;11.26;90.22
70103;BME280;57470;50.034;15.256;2023-03-21T07:34:40;99487.50;;;11.11;87.58
70103;BME280;57470;50.034;15.256;2023-03-21T07:37:06;99489.72;;;11.30;88.14
70103;BME280;57470;50.034;15.256;2023-03-21T07:39:31;99505.59;;;11.32;87.76
70103;BME280;57470;50.034;15.256;2023-03-21T07:41:59;99503.22;;;11.40;88.12
70103;BME280;57470;50.034;15.256;2023-03-21T07:44:24;99496.94;;;11.53;87.88
70103;BME280;57470;50.034;15.256;2023-03-21T07:46:50;99498.28;;;11.59;86.04
70103;BME280;57470;50.034;15.256;2023-03-21T07:49:17;99503.41;;;11.49;85.57
70103;BME280;57470;50.034;15.256;2023-03-21T07:51:43;99497.84;;;11.78;85.48
70103;BME280;57470;50.034;15.256;2023-03-21T07:54:09;99495.06;;;11.79;84.96
70103;BME280;57470;50.034;15.256;2023-03-21T07:56:35;99496.56;;;11.58;85.11
70103;BME280;57470;50.034;15.256;2023-03-21T07:59:00;99496.41;;;11.72;84.69
70103;BME280;57470;50.034;15.256;2023-03-21T08:01:26;99499.28;;;11.82;85.33
70103;BME280;57470;50.034;15.256;2023-03-21T08:03:51;99501.81;;;12.20;84.40
70103;BME280;57470;50.034;15.256;2023-03-21T08:06:21;99504.41;;;12.32;83.42
70103;BME280;57470;50.034;15.256;2023-03-21T08:08:46;99500.66;;;12.70;82.49
70103;BME280;57470;50.034;15.256;2023-03-21T08:11:12;99496.94;;;12.95;81.23
70103;BME280;57470;50.034;15.256;2023-03-21T08:13:37;99503.72;;;12.88;79.26
70103;BME280;57470;50.034;15.256;2023-03-21T08:16:03;99506.41;;;13.10;79.87
70103;BME280;57470;50.034;15.256;2023-03-21T08:18:29;99502.28;;;13.62;79.24
70103;BME280;57470;50.034;15.256;2023-03-21T08:20:56;99497.56;;;13.76;78.81
70103;BME280;57470;50.034;15.256;2023-03-21T08:23:22;99493.72;;;14.01;77.71
70103;BME280;57470;50.034;15.256;2023-03-21T08:25:55;99498.56;;;13.31;77.02
70103;BME280;57470;50.034;15.256;2023-03-21T08:28:21;99504.16;;;13.50;78.43
70103;BME280;57470;50.034;15.256;2023-03-21T08:30:47;99495.63;;;13.67;76.67
70103;BME280;57470;50.034;15.256;2023-03-21T08:33:14;99505.81;;;13.51;77.04
70103;BME280;57470;50.034;15.256;2023-03-21T08:35:40;99500.16;;;13.22;76.17
70103;BME280;57470;50.034;15.256;2023-03-21T08:38:06;99496.97;;;13.06;77.95
70103;BME280;57470;50.034;15.256;2023-03-21T08:40:32;99494.63;;;13.01;77.87
70103;BME280;57470;50.034;15.256;2023-03-21T08:42:57;99500.34;;;12.97;77.62
70103;BME280;57470;50.034;15.256;2023-03-21T08:45:23;99504.94;;;12.95;77.57
70103;BME280;57470;50.034;15.256;2023-03-21T08:47:49;99505.72;;;13.19;77.13
70103;BME280;57470;50.034;15.256;2023-03-21T08:50:18;99506.81;;;13.39;76.08
70103;BME280;57470;50.034;15.256;2023-03-21T08:52:44;99493.47;;;13.28;75.44
70103;BME280;57470;50.034;15.256;2023-03-21T08:55:10;99502.78;;;13.33;76.99
70103;BME280;57470;50.034;15.256;2023-03-21T08:57:36;99492.97;;;13.34;75.96
70103;BME280;57470;50.034;15.256;2023-03-21T09:00:03;99490.41;;;13.43;76.02
70103;BME280;57470;50.034;15.256;2023-03-21T09:02:35;99490.16;;;13.69;76.27
70103;BME280;57470;50.034;15.256;2023-03-21T09:05:00;99494.53;;;13.59;75.74
70103;BME280;57470;50.034;15.256;2023-03-21T09:07:27;99498.69;;;13.40;76.08
70103;BME280;57470;50.034;15.256;2023-03-21T09:09:53;99494.50;;;13.70;75.01
70103;BME280;57470;50.034;15.256;2023-03-21T09:12:19;99487.81;;;13.75;75.85
70103;BME280;57470;50.034;15.256;2023-03-21T09:14:46;99495.75;;;13.43;75.21
70103;BME280;57470;50.034;15.256;2023-03-21T09:17:12;99488.94;;;13.62;75.34
70103;BME280;57470;50.034;15.256;2023-03-21T09:19:37;99491.50;;;13.63;74.04
70103;BME280;57470;50.034;15.256;2023-03-21T09:22:03;99497.81;;;14.05;74.79
70103;BME280;57470;50.034;15.256;2023-03-21T09:24:29;99496.38;;;14.44;74.56
70103;BME280;57470;50.034;15.256;2023-03-21T09:26:55;99489.19;;;14.45;73.62
70103;BME280;57470;50.034;15.256;2023-03-21T09:29:21;99494.16;;;14.06;74.54
70103;BME280;57470;50.034;15.256;2023-03-21T09:31:47;99484.97;;;14.63;73.34
70103;BME280;57470;50.034;15.256;2023-03-21T09:34:13;99482.53;;;14.39;72.17
70103;BME280;57470;50.034;15.256;2023-03-21T09:36:41;99478.25;;;14.48;73.07
70103;BME280;57470;50.034;15.256;2023-03-21T09:39:08;99482.41;;;14.82;73.29
70103;BME280;57470;50.034;15.256;2023-03-21T09:44:57;99488.44;;;14.22;72.42
70103;BME280;57470;50.034;15.256;2023-03-21T09:47:28;99486.78;;;14.83;72.95
70103;BME280;57470;50.034;15.256;2023-03-21T09:53:00;99484.97;;;15.14;70.62
70103;BME280;57470;50.034;15.256;2023-03-21T09:55:32;99478.88;;;14.82;69.05
70103;BME280;57470;50.034;15.256;2023-03-21T09:58:23;99490.75;;;15.50;69.28
70103;BME280;57470;50.034;15.256;2023-03-21T10:01:08;99480.81;;;15.31;69.47
70103;BME280;57470;50.034;15.256;2023-03-21T10:03:47;99485.28;;;15.91;70.27
70103;BME280;57470;50.034;15.256;2023-03-21T10:06:14;99483.94;;;15.06;72.28
70103;BME280;57470;50.034;15.256;2023-03-21T10:08:42;99480.28;;;15.67;70.33
70103;BME280;57470;50.034;15.256;2023-03-21T10:13:55;99479.06;;;14.90;69.81
70103;BME280;57470;50.034;15.256;2023-03-21T10:16:31;99477.91;;;15.13;68.03
70103;BME280;57470;50.034;15.256;2023-03-21T10:19:03;99468.13;;;15.33;68.54
70103;BME280;57470;50.034;15.256;2023-03-21T10:21:29;99471.16;;;15.49;67.86
70103;BME280;57470;50.034;15.256;2023-03-21T10:23:57;99469.53;;;15.27;66.86
70103;BME280;57470;50.034;15.256;2023-03-21T10:26:26;99467.50;;;15.10;67.23
70103;BME280;57470;50.034;15.256;2023-03-21T10:28:57;99466.22;;;15.45;67.68
70103;BME280;57470;50.034;15.256;2023-03-21T10:31:25;99465.22;;;15.46;68.18
70103;BME280;57470;50.034;15.256;2023-03-21T10:33:55;99462.09;;;15.71;66.41
70103;BME280;57470;50.034;15.256;2023-03-21T10:36:25;99466.94;;;16.06;65.57
70103;BME280;57470;50.034;15.256;2023-03-21T10:39:02;99462.44;;;16.35;65.12
70103;BME280;57470;50.034;15.256;2023-03-21T10:41:29;99459.16;;;16.61;64.09
70103;BME280;57470;50.034;15.256;2023-03-21T10:44:05;99455.09;;;16.28;66.33
70103;BME280;57470;50.034;15.256;2023-03-21T10:46:31;99453.50;;;15.87;65.17
70103;BME280;57470;50.034;15.256;2023-03-21T10:48:58;99464.25;;;16.16;64.91
70103;BME280;57470;50.034;15.256;2023-03-21T10:51:29;99462.66;;;15.74;65.24
70103;BME280;57470;50.034;15.256;2023-03-21T10:54:04;99461.50;;;15.67;65.98
70103;BME280;57470;50.034;15.256;2023-03-21T10:56:35;99466.38;;;16.12;66.34
70103;BME280;57470;50.034;15.256;2023-03-21T10:59:02;99464.69;;;15.92;66.05
70103;BME280;57470;50.034;15.256;2023-03-21T11:01:39;99458.91;;;15.16;66.53
70103;BME280;57470;50.034;15.256;2023-03-21T11:04:13;99459.78;;;15.26;67.82
70103;BME280;57470;50.034;15.256;2023-03-21T11:06:42;99459.13;;;15.34;66.55
70103;BME280;57470;50.034;15.256;2023-03-21T11:09:14;99455.78;;;15.51;67.67
70103;BME280;57470;50.034;15.256;2023-03-21T11:11:48;99449.34;;;15.54;69.71
70103;BME280;57470;50.034;15.256;2023-03-21T11:14:45;99448.16;;;16.06;66.02
70103;BME280;57470;50.034;15.256;2023-03-21T11:19:56;99446.84;;;16.87;64.99
70103;BME280;57470;50.034;15.256;2023-03-21T11:22:24;99447.13;;;16.74;63.99
70103;BME280;57470;50.034;15.256;2023-03-21T11:24:57;99438.31;;;16.92;63.80
70103;BME280;57470;50.034;15.256;2023-03-21T11:27:25;99445.75;;;16.22;64.15
70103;BME280;57470;50.034;15.256;2023-03-21T11:29:53;99444.47;;;15.88;65.32
70103;BME280;57470;50.034;15.256;2023-03-21T11:32:34;99436.16;;;16.10;64.74
70103;BME280;57470;50.034;15.256;2023-03-21T11:35:22;99438.41;;;16.34;67.00
70103;BME280;57470;50.034;15.256;2023-03-21T11:37:54;99436.44;;;16.07;65.22
70103;BME280;57470;50.034;15.256;2023-03-21T11:40:34;99437.28;;;16.27;64.64
70103;BME280;57470;50.034;15.256;2023-03-21T11:48:29;99414.13;;;16.92;62.60
70103;BME280;57470;50.034;15.256;2023-03-21T11:51:09;99415.50;;;17.70;63.78
70103;BME280;57470;50.034;15.256;2023-03-21T11:53:42;99406.59;;;17.05;63.31
70103;BME280;57470;50.034;15.256;2023-03-21T11:56:33;99413.50;;;17.44;62.29
70103;BME280;57470;50.034;15.256;2023-03-21T12:01:48;99402.03;;;17.15;63.97
70103;BME280;57470;50.034;15.256;2023-03-21T12:04:58;99401.19;;;17.14;61.77
70103;BME280;57470;50.034;15.256;2023-03-21T12:13:09;99395.72;;;16.40;62.79
70103;BME280;57470;50.034;15.256;2023-03-21T12:15:53;99399.44;;;16.01;64.15
70103;BME280;57470;50.034;15.256;2023-03-21T12:24:00;99389.34;;;16.51;64.06
70103;BME280;57470;50.034;15.256;2023-03-21T12:26:30;99380.44;;;16.70;65.59
70103;BME280;57470;50.034;15.256;2023-03-21T12:39:45;99352.72;;;17.79;61.49
70103;BME280;57470;50.034;15.256;2023-03-21T12:44:44;99358.53;;;18.10;61.10
70103;BME280;57470;50.034;15.256;2023-03-21T12:47:25;99347.06;;;17.27;63.15
70103;BME280;57470;50.034;15.256;2023-03-21T12:49:56;99351.13;;;18.55;60.46
70103;BME280;57470;50.034;15.256;2023-03-21T12:52:31;99336.94;;;17.66;64.35
70103;BME280;57470;50.034;15.256;2023-03-21T12:55:02;99339.34;;;17.87;62.29
70103;BME280;57470;50.034;15.256;2023-03-21T12:57:32;99334.22;;;18.45;59.89
70103;BME280;57470;50.034;15.256;2023-03-21T13:02:58;99326.09;;;18.37;59.19
70103;BME280;57470;50.034;15.256;2023-03-21T13:05:32;99321.78;;;17.83;60.96
70103;BME280;57470;50.034;15.256;2023-03-21T13:10:56;99321.53;;;18.37;58.54
70103;BME280;57470;50.034;15.256;2023-03-21T13:21:14;99314.03;;;17.97;59.36
70103;BME280;57470;50.034;15.256;2023-03-21T13:23:58;99311.50;;;17.96;59.32
70103;BME280;57470;50.034;15.256;2023-03-21T13:26:37;99314.22;;;18.48;58.74
70103;BME280;57470;50.034;15.256;2023-03-21T13:29:44;99306.72;;;17.90;59.39
70103;BME280;57470;50.034;15.256;2023-03-21T13:32:32;99301.50;;;17.88;59.52
70103;BME280;57470;50.034;15.256;2023-03-21T13:35:01;99296.00;;;18.16;60.48
70103;BME280;57470;50.034;15.256;2023-03-21T13:37:39;99301.94;;;17.48;59.91
70103;BME280;57470;50.034;15.256;2023-03-21T13:40:19;99288.69;;;17.19;60.75
70103;BME280;57470;50.034;15.256;2023-03-21T13:42:54;99287.66;;;17.83;60.39
70103;BME280;57470;50.034;15.256;2023-03-21T13:45:33;99284.25;;;17.99;59.60
70103;BME280;57470;50.034;15.256;2023-03-21T13:48:03;99282.69;;;18.14;59.33
70103;BME280;57470;50.034;15.256;2023-03-21T13:50:30;99284.72;;;17.23;61.72
70103;BME280;57470;50.034;15.256;2023-03-21T13:55:43;99280.34;;;17.40;64.24
70103;BME280;57470;50.034;15.256;2023-03-21T13:58:38;99271.22;;;17.51;62.77
70103;BME280;57470;50.034;15.256;2023-03-21T14:01:35;99281.25;;;18.02;60.04
70103;BME280;57470;50.034;15.256;2023-03-21T14:04:15;99276.13;;;18.17;59.81
70103;BME280;57470;50.034;15.256;2023-03-21T14:06:56;99271.66;;;18.51;59.83
70103;BME280;57470;50.034;15.256;2023-03-21T14:09:30;99272.22;;;18.37;58.80
70103;BME280;57470;50.034;15.256;2023-03-21T14:11:59;99269.75;;;18.18;58.25
70103;BME280;57470;50.034;15.256;2023-03-21T14:14:30;99262.25;;;18.04;60.00
70103;BME280;57470;50.034;15.256;2023-03-21T14:16:57;99267.09;;;18.78;57.41
70103;BME280;57470;50.034;15.256;2023-03-21T14:19:30;99248.44;;;17.81;59.19
70103;BME280;57470;50.034;15.256;2023-03-21T14:21:57;99264.66;;;18.32;59.40
70103;BME280;57470;50.034;15.256;2023-03-21T14:24:22;99254.22;;;18.37;59.10
70103;BME280;57470;50.034;15.256;2023-03-21T14:26:49;99259.94;;;17.65;60.04
70103;BME280;57470;50.034;15.256;2023-03-21T14:29:31;99254.75;;;17.36;60.57
70103;BME280;57470;50.034;15.256;2023-03-21T14:31:58;99257.69;;;17.43;60.62
70103;BME280;57470;50.034;15.256;2023-03-21T14:34:31;99254.84;;;17.09;61.08
70103;BME280;57470;50.034;15.256;2023-03-21T14:36:57;99254.81;;;16.64;62.28
70103;BME280;57470;50.034;15.256;2023-03-21T14:39:26;99247.97;;;16.97;62.41
70103;BME280;57470;50.034;15.256;2023-03-21T14:41:54;99251.38;;;16.99;61.89